Aviation Digital Data Service (ADDS)

Output produced by METARs form (1158 UTC 22 March 2019)
found at http://www.aviationweather.gov/metar/data/
 
METAR text: ZBHH 221100Z 34007MPS 9999 FEW040 02/M17 Q1023 BECMG TL1230 06005MPS
Conditions at: ZBHH (HUHHOT , CN) observed 1100 UTC 22 March 2019
Temperature: 2.0°C (36°F)
Dewpoint: -17.0°C ( 1°F) [RH = 23%]
Pressure (altimeter): 30.21 inches Hg (1023.0 mb)
Winds: from the NNW (340 degrees) at 16 MPH (14 knots; 7.2 m/s)
Visibility: 6 or more miles (10+ km)
Ceiling: at least 12,000 feet AGL
Clouds: few clouds at 4000 feet AGL
Weather: no significant weather observed at this time

METAR text: ZBHH 221000Z 31009G14MPS 9999 FEW040 03/M18 Q1022 BECMG TL1130 03005MPS
Conditions at: ZBHH (HUHHOT , CN) observed 1000 UTC 22 March 2019
Temperature: 3.0°C (37°F)
Dewpoint: -18.0°C (-0°F) [RH = 20%]
Pressure (altimeter): 30.18 inches Hg (1022.0 mb)
Winds: from the NW (310 degrees) at 20 MPH (17 knots; 8.7 m/s)
gusting to 31 MPH (27 knots; 13.9 m/s)
Visibility: 6 or more miles (10+ km)
Ceiling: at least 12,000 feet AGL
Clouds: few clouds at 4000 feet AGL
Weather: no significant weather observed at this time

METAR text: ZBHH 220900Z 32011G16MPS 9999 FEW040 04/M18 Q1021 NOSIG
Conditions at: ZBHH (HUHHOT , CN) observed 0900 UTC 22 March 2019
Temperature: 4.0°C (39°F)
Dewpoint: -18.0°C (-0°F) [RH = 18%]
Pressure (altimeter): 30.15 inches Hg (1021.0 mb)
Winds: from the NW (320 degrees) at 24 MPH (21 knots; 10.8 m/s)
gusting to 36 MPH (31 knots; 15.9 m/s)
Visibility: 6 or more miles (10+ km)
Ceiling: at least 12,000 feet AGL
Clouds: few clouds at 4000 feet AGL
Weather: no significant weather observed at this time

METAR text: ZBHH 220800Z 33011G16MPS 9999 FEW040 05/M18 Q1021 NOSIG
Conditions at: ZBHH (HUHHOT , CN) observed 0800 UTC 22 March 2019
Temperature: 5.0°C (41°F)
Dewpoint: -18.0°C (-0°F) [RH = 17%]
Pressure (altimeter): 30.15 inches Hg (1021.0 mb)
Winds: from the NNW (330 degrees) at 24 MPH (21 knots; 10.8 m/s)
gusting to 36 MPH (31 knots; 15.9 m/s)
Visibility: 6 or more miles (10+ km)
Ceiling: at least 12,000 feet AGL
Clouds: few clouds at 4000 feet AGL
Weather: no significant weather observed at this time

METAR text: ZBHH 220700Z 32010MPS 9999 FEW040 06/M17 Q1021 NOSIG
Conditions at: ZBHH (HUHHOT , CN) observed 0700 UTC 22 March 2019
Temperature: 6.0°C (43°F)
Dewpoint: -17.0°C ( 1°F) [RH = 17%]
Pressure (altimeter): 30.15 inches Hg (1021.0 mb)
Winds: from the NW (320 degrees) at 22 MPH (19 knots; 9.8 m/s)
Visibility: 6 or more miles (10+ km)
Ceiling: at least 12,000 feet AGL
Clouds: few clouds at 4000 feet AGL
Weather: no significant weather observed at this time

METAR text: ZBHH 220600Z 30009MPS 270V340 9999 FEW040 06/M18 Q1021 NOSIG
Conditions at: ZBHH (HUHHOT , CN) observed 0600 UTC 22 March 2019
Temperature: 6.0°C (43°F)
Dewpoint: -18.0°C (-0°F) [RH = 16%]
Pressure (altimeter): 30.15 inches Hg (1021.0 mb)
Winds: from the WNW (300 degrees) at 20 MPH (17 knots; 8.7 m/s)
Visibility: 6 or more miles (10+ km)
Ceiling: at least 12,000 feet AGL
Clouds: few clouds at 4000 feet AGL
Weather: no significant weather observed at this time

METAR text: ZBHH 220500Z 30010G15MPS 270V330 9999 FEW040 06/M19 Q1022 NOSIG
Conditions at: ZBHH (HUHHOT , CN) observed 0500 UTC 22 March 2019
Temperature: 6.0°C (43°F)
Dewpoint: -19.0°C (-2°F) [RH = 15%]
Pressure (altimeter): 30.18 inches Hg (1022.0 mb)
Winds: from the WNW (300 degrees) at 22 MPH (19 knots; 9.8 m/s)
gusting to 33 MPH (29 knots; 14.9 m/s)
Visibility: 6 or more miles (10+ km)
Ceiling: at least 12,000 feet AGL
Clouds: few clouds at 4000 feet AGL
Weather: no significant weather observed at this time

METAR text: ZBHH 220400Z VRB03G08MPS 9999 FEW040 05/M16 Q1023 BECMG TL0430 33007MPS
Conditions at: ZBHH (HUHHOT , CN) observed 0400 UTC 22 March 2019
Temperature: 5.0°C (41°F)
Dewpoint: -16.0°C ( 3°F) [RH = 20%]
Pressure (altimeter): 30.21 inches Hg (1023.0 mb)
Winds: variable direction winds at 7 MPH (6 knots; 3.1 m/s)
gusting to 18 MPH (16 knots; 8.2 m/s)
Visibility: 6 or more miles (10+ km)
Ceiling: at least 12,000 feet AGL
Clouds: few clouds at 4000 feet AGL
Weather: no significant weather observed at this time

METAR text: ZBHH 220300Z 21004MPS 170V250 CAVOK 02/M16 Q1024 BECMG TL0430 33007MPS
Conditions at: ZBHH (HUHHOT , CN) observed 0300 UTC 22 March 2019
Temperature: 2.0°C (36°F)
Dewpoint: -16.0°C ( 3°F) [RH = 25%]
Pressure (altimeter): 30.24 inches Hg (1024.0 mb)
Winds: from the SSW (210 degrees) at 9 MPH (8 knots; 4.1 m/s)
Visibility: 6 or more miles (10+ km)
Ceiling: ceiling and visibility are OK
Clouds: unknown
Weather: no significant weather observed at this time

METAR text: ZBHH 220200Z 20004MPS CAVOK M00/M15 Q1024 BECMG TL0330 33007MPS
Conditions at: ZBHH (HUHHOT , CN) observed 0200 UTC 22 March 2019
Temperature: 0.0°C (32°F)
Dewpoint: -15.0°C ( 5°F) [RH = 31%]
Pressure (altimeter): 30.24 inches Hg (1024.0 mb)
Winds: from the SSW (200 degrees) at 9 MPH (8 knots; 4.1 m/s)
Visibility: 6 or more miles (10+ km)
Ceiling: ceiling and visibility are OK
Clouds: unknown
Weather: no significant weather observed at this time

METAR text: ZBHH 220100Z 14002MPS 100V190 CAVOK M02/M15 Q1025 BECMG TL0230 33007MPS
Conditions at: ZBHH (HUHHOT , CN) observed 0100 UTC 22 March 2019
Temperature: -2.0°C (28°F)
Dewpoint: -15.0°C ( 5°F) [RH = 36%]
Pressure (altimeter): 30.27 inches Hg (1025.0 mb)
Winds: from the SE (140 degrees) at 5 MPH (4 knots; 2.1 m/s)
Visibility: 6 or more miles (10+ km)
Ceiling: ceiling and visibility are OK
Clouds: unknown
Weather: no significant weather observed at this time

METAR text: ZBHH 220000Z VRB01MPS CAVOK M05/M16 Q1025 BECMG TL0130 33007MPS
Conditions at: ZBHH (HUHHOT , CN) observed 0000 UTC 22 March 2019
Temperature: -5.0°C (23°F)
Dewpoint: -16.0°C ( 3°F) [RH = 42%]
Pressure (altimeter): 30.27 inches Hg (1025.0 mb)
Winds: variable direction winds at 2 MPH (2 knots; 1.0 m/s)
Visibility: 6 or more miles (10+ km)
Ceiling: ceiling and visibility are OK
Clouds: unknown
Weather: no significant weather observed at this time

METAR text: ZBHH 212300Z 08002MPS 050V110 CAVOK M10/M17 Q1024 NOSIG
Conditions at: ZBHH (HUHHOT , CN) observed 2300 UTC 21 March 2019
Temperature: -10.0°C (14°F)
Dewpoint: -17.0°C ( 1°F) [RH = 57%]
Pressure (altimeter): 30.24 inches Hg (1024.0 mb)
Winds: from the E (80 degrees) at 5 MPH (4 knots; 2.1 m/s)
Visibility: 6 or more miles (10+ km)
Ceiling: ceiling and visibility are OK
Clouds: unknown
Weather: no significant weather observed at this time

METAR text: ZBHH 212200Z 04002MPS CAVOK M08/M18 Q1024 NOSIG
Conditions at: ZBHH (HUHHOT , CN) observed 2200 UTC 21 March 2019
Temperature: -8.0°C (18°F)
Dewpoint: -18.0°C (-0°F) [RH = 44%]
Pressure (altimeter): 30.24 inches Hg (1024.0 mb)
Winds: from the NE (40 degrees) at 5 MPH (4 knots; 2.1 m/s)
Visibility: 6 or more miles (10+ km)
Ceiling: ceiling and visibility are OK
Clouds: unknown
Weather: no significant weather observed at this time

METAR text: ZBHH 212100Z 36002MPS 340V040 CAVOK M06/M17 Q1024 NOSIG
Conditions at: ZBHH (HUHHOT , CN) observed 2100 UTC 21 March 2019
Temperature: -6.0°C (21°F)
Dewpoint: -17.0°C ( 1°F) [RH = 41%]
Pressure (altimeter): 30.24 inches Hg (1024.0 mb)
Winds: from the N (360 degrees) at 5 MPH (4 knots; 2.1 m/s)
Visibility: 6 or more miles (10+ km)
Ceiling: ceiling and visibility are OK
Clouds: unknown
Weather: no significant weather observed at this time

METAR text: ZBHH 212000Z 35002MPS 270V050 CAVOK M04/M17 Q1024 NOSIG
Conditions at: ZBHH (HUHHOT , CN) observed 2000 UTC 21 March 2019
Temperature: -4.0°C (25°F)
Dewpoint: -17.0°C ( 1°F) [RH = 36%]
Pressure (altimeter): 30.24 inches Hg (1024.0 mb)
Winds: from the N (350 degrees) at 5 MPH (4 knots; 2.1 m/s)
Visibility: 6 or more miles (10+ km)
Ceiling: ceiling and visibility are OK
Clouds: unknown
Weather: no significant weather observed at this time

METAR text: ZBHH 211900Z 36004MPS CAVOK M04/M16 Q1023 NOSIG
Conditions at: ZBHH (HUHHOT , CN) observed 1900 UTC 21 March 2019
Temperature: -4.0°C (25°F)
Dewpoint: -16.0°C ( 3°F) [RH = 39%]
Pressure (altimeter): 30.21 inches Hg (1023.0 mb)
Winds: from the N (360 degrees) at 9 MPH (8 knots; 4.1 m/s)
Visibility: 6 or more miles (10+ km)
Ceiling: ceiling and visibility are OK
Clouds: unknown
Weather: no significant weather observed at this time

METAR text: ZBHH 211800Z 34005MPS CAVOK M04/M17 Q1023 NOSIG
Conditions at: ZBHH (HUHHOT , CN) observed 1800 UTC 21 March 2019
Temperature: -4.0°C (25°F)
Dewpoint: -17.0°C ( 1°F) [RH = 36%]
Pressure (altimeter): 30.21 inches Hg (1023.0 mb)
Winds: from the NNW (340 degrees) at 12 MPH (10 knots; 5.1 m/s)
Visibility: 6 or more miles (10+ km)
Ceiling: ceiling and visibility are OK
Clouds: unknown
Weather: no significant weather observed at this time

METAR text: ZBHH 211700Z 33005MPS CAVOK M03/M17 Q1024 NOSIG
Conditions at: ZBHH (HUHHOT , CN) observed 1700 UTC 21 March 2019
Temperature: -3.0°C (27°F)
Dewpoint: -17.0°C ( 1°F) [RH = 33%]
Pressure (altimeter): 30.24 inches Hg (1024.0 mb)
Winds: from the NNW (330 degrees) at 12 MPH (10 knots; 5.1 m/s)
Visibility: 6 or more miles (10+ km)
Ceiling: ceiling and visibility are OK
Clouds: unknown
Weather: no significant weather observed at this time

METAR text: ZBHH 211600Z 32002MPS 260V030 CAVOK M02/M16 Q1023 NOSIG
Conditions at: ZBHH (HUHHOT , CN) observed 1600 UTC 21 March 2019
Temperature: -2.0°C (28°F)
Dewpoint: -16.0°C ( 3°F) [RH = 33%]
Pressure (altimeter): 30.21 inches Hg (1023.0 mb)
Winds: from the NW (320 degrees) at 5 MPH (4 knots; 2.1 m/s)
Visibility: 6 or more miles (10+ km)
Ceiling: ceiling and visibility are OK
Clouds: unknown
Weather: no significant weather observed at this time

METAR text: ZBHH 211500Z 35005MPS CAVOK M02/M14 Q1023 BECMG TL1630 07004MPS
Conditions at: ZBHH (HUHHOT , CN) observed 1500 UTC 21 March 2019
Temperature: -2.0°C (28°F)
Dewpoint: -14.0°C ( 7°F) [RH = 39%]
Pressure (altimeter): 30.21 inches Hg (1023.0 mb)
Winds: from the N (350 degrees) at 12 MPH (10 knots; 5.1 m/s)
Visibility: 6 or more miles (10+ km)
Ceiling: ceiling and visibility are OK
Clouds: unknown
Weather: no significant weather observed at this time

METAR text: ZBHH 211400Z 35005MPS CAVOK M01/M14 Q1023 NOSIG
Conditions at: ZBHH (HUHHOT , CN) observed 1400 UTC 21 March 2019
Temperature: -1.0°C (30°F)
Dewpoint: -14.0°C ( 7°F) [RH = 37%]
Pressure (altimeter): 30.21 inches Hg (1023.0 mb)
Winds: from the N (350 degrees) at 12 MPH (10 knots; 5.1 m/s)
Visibility: 6 or more miles (10+ km)
Ceiling: ceiling and visibility are OK
Clouds: unknown
Weather: no significant weather observed at this time

METAR text: ZBHH 211300Z 34003MPS 300V360 9999 FEW040 M01/M14 Q1023 NOSIG
Conditions at: ZBHH (HUHHOT , CN) observed 1300 UTC 21 March 2019
Temperature: -1.0°C (30°F)
Dewpoint: -14.0°C ( 7°F) [RH = 37%]
Pressure (altimeter): 30.21 inches Hg (1023.0 mb)
Winds: from the NNW (340 degrees) at 7 MPH (6 knots; 3.1 m/s)
Visibility: 6 or more miles (10+ km)
Ceiling: at least 12,000 feet AGL
Clouds: few clouds at 4000 feet AGL
Weather: no significant weather observed at this time

METAR text: ZBHH 211200Z 35006MPS 9999 FEW040 00/M15 Q1022 NOSIG
Conditions at: ZBHH (HUHHOT , CN) observed 1200 UTC 21 March 2019
Temperature: 0.0°C (32°F)
Dewpoint: -15.0°C ( 5°F) [RH = 31%]
Pressure (altimeter): 30.18 inches Hg (1022.0 mb)
Winds: from the N (350 degrees) at 14 MPH (12 knots; 6.2 m/s)
Visibility: 6 or more miles (10+ km)
Ceiling: at least 12,000 feet AGL
Clouds: few clouds at 4000 feet AGL
Weather: no significant weather observed at this time

METAR text: ZBHH 211100Z 31006MPS 9999 FEW040 02/M13 Q1021 BECMG TL1230 03004MPS
Conditions at: ZBHH (HUHHOT , CN) observed 1100 UTC 21 March 2019
Temperature: 2.0°C (36°F)
Dewpoint: -13.0°C ( 9°F) [RH = 32%]
Pressure (altimeter): 30.15 inches Hg (1021.0 mb)
Winds: from the NW (310 degrees) at 14 MPH (12 knots; 6.2 m/s)
Visibility: 6 or more miles (10+ km)
Ceiling: at least 12,000 feet AGL
Clouds: few clouds at 4000 feet AGL
Weather: no significant weather observed at this time

METAR text: ZBHH 211000Z 22003MPS 150V260 9999 FEW040 03/M14 Q1020 NOSIG
Conditions at: ZBHH (HUHHOT , CN) observed 1000 UTC 21 March 2019
Temperature: 3.0°C (37°F)
Dewpoint: -14.0°C ( 7°F) [RH = 27%]
Pressure (altimeter): 30.12 inches Hg (1020.0 mb)
Winds: from the SW (220 degrees) at 7 MPH (6 knots; 3.1 m/s)
Visibility: 6 or more miles (10+ km)
Ceiling: at least 12,000 feet AGL
Clouds: few clouds at 4000 feet AGL
Weather: no significant weather observed at this time

METAR text: ZBHH 210900Z 20003MPS 160V230 9999 SCT040 03/M14 Q1020 NOSIG
Conditions at: ZBHH (HUHHOT , CN) observed 0900 UTC 21 March 2019
Temperature: 3.0°C (37°F)
Dewpoint: -14.0°C ( 7°F) [RH = 27%]
Pressure (altimeter): 30.12 inches Hg (1020.0 mb)
Winds: from the SSW (200 degrees) at 7 MPH (6 knots; 3.1 m/s)
Visibility: 6 or more miles (10+ km)
Ceiling: at least 12,000 feet AGL
Clouds: scattered clouds at 4000 feet AGL
Weather: no significant weather observed at this time

METAR text: ZBHH 210800Z 20004G09MPS 150V240 9999 SCT040 03/M14 Q1020 NOSIG
Conditions at: ZBHH (HUHHOT , CN) observed 0800 UTC 21 March 2019
Temperature: 3.0°C (37°F)
Dewpoint: -14.0°C ( 7°F) [RH = 27%]
Pressure (altimeter): 30.12 inches Hg (1020.0 mb)
Winds: from the SSW (200 degrees) at 9 MPH (8 knots; 4.1 m/s)
gusting to 20 MPH (17 knots; 8.7 m/s)
Visibility: 6 or more miles (10+ km)
Ceiling: at least 12,000 feet AGL
Clouds: scattered clouds at 4000 feet AGL
Weather: no significant weather observed at this time

METAR text: ZBHH 210700Z 31002MPS 9999 SCT040 03/M14 Q1021 NOSIG
Conditions at: ZBHH (HUHHOT , CN) observed 0700 UTC 21 March 2019
Temperature: 3.0°C (37°F)
Dewpoint: -14.0°C ( 7°F) [RH = 27%]
Pressure (altimeter): 30.15 inches Hg (1021.0 mb)
Winds: from the NW (310 degrees) at 5 MPH (4 knots; 2.1 m/s)
Visibility: 6 or more miles (10+ km)
Ceiling: at least 12,000 feet AGL
Clouds: scattered clouds at 4000 feet AGL
Weather: no significant weather observed at this time

METAR text: ZBHH 210600Z 29004MPS 230V320 9999 SCT040 03/M15 Q1022 NOSIG
Conditions at: ZBHH (HUHHOT , CN) observed 0600 UTC 21 March 2019
Temperature: 3.0°C (37°F)
Dewpoint: -15.0°C ( 5°F) [RH = 25%]
Pressure (altimeter): 30.18 inches Hg (1022.0 mb)
Winds: from the WNW (290 degrees) at 9 MPH (8 knots; 4.1 m/s)
Visibility: 6 or more miles (10+ km)
Ceiling: at least 12,000 feet AGL
Clouds: scattered clouds at 4000 feet AGL
Weather: no significant weather observed at this time

METAR text: ZBHH 210500Z 35003G08MPS 250V060 9999 SCT040 01/M13 Q1022 BECMG TL0600 28005MPS
Conditions at: ZBHH (HUHHOT , CN) observed 0500 UTC 21 March 2019
Temperature: 1.0°C (34°F)
Dewpoint: -13.0°C ( 9°F) [RH = 34%]
Pressure (altimeter): 30.18 inches Hg (1022.0 mb)
Winds: from the N (350 degrees) at 7 MPH (6 knots; 3.1 m/s)
gusting to 18 MPH (16 knots; 8.2 m/s)
Visibility: 6 or more miles (10+ km)
Ceiling: at least 12,000 feet AGL
Clouds: scattered clouds at 4000 feet AGL
Weather: no significant weather observed at this time

METAR text: ZBHH 210400Z 31005MPS 270V350 9999 SCT040 00/M14 Q1023 NOSIG
Conditions at: ZBHH (HUHHOT , CN) observed 0400 UTC 21 March 2019
Temperature: 0.0°C (32°F)
Dewpoint: -14.0°C ( 7°F) [RH = 34%]
Pressure (altimeter): 30.21 inches Hg (1023.0 mb)
Winds: from the NW (310 degrees) at 12 MPH (10 knots; 5.1 m/s)
Visibility: 6 or more miles (10+ km)
Ceiling: at least 12,000 feet AGL
Clouds: scattered clouds at 4000 feet AGL
Weather: no significant weather observed at this time

METAR text: ZBHH 210300Z 31004MPS 270V350 9999 BKN040 M00/M13 Q1023 NOSIG
Conditions at: ZBHH (HUHHOT , CN) observed 0300 UTC 21 March 2019
Temperature: 0.0°C (32°F)
Dewpoint: -13.0°C ( 9°F) [RH = 37%]
Pressure (altimeter): 30.21 inches Hg (1023.0 mb)
Winds: from the NW (310 degrees) at 9 MPH (8 knots; 4.1 m/s)
Visibility: 6 or more miles (10+ km)
Ceiling: 4000 feet AGL
Clouds: broken clouds at 4000 feet AGL
Weather: no significant weather observed at this time

METAR text: ZBHH 210200Z 02004MPS 340V060 9999 BKN040 M02/M13 Q1024 NOSIG
Conditions at: ZBHH (HUHHOT , CN) observed 0200 UTC 21 March 2019
Temperature: -2.0°C (28°F)
Dewpoint: -13.0°C ( 9°F) [RH = 43%]
Pressure (altimeter): 30.24 inches Hg (1024.0 mb)
Winds: from the NNE (20 degrees) at 9 MPH (8 knots; 4.1 m/s)
Visibility: 6 or more miles (10+ km)
Ceiling: 4000 feet AGL
Clouds: broken clouds at 4000 feet AGL
Weather: no significant weather observed at this time

METAR text: ZBHH 210100Z 32004MPS 9999 BKN040 M03/M12 Q1024 NOSIG
Conditions at: ZBHH (HUHHOT , CN) observed 0100 UTC 21 March 2019
Temperature: -3.0°C (27°F)
Dewpoint: -12.0°C (10°F) [RH = 50%]
Pressure (altimeter): 30.24 inches Hg (1024.0 mb)
Winds: from the NW (320 degrees) at 9 MPH (8 knots; 4.1 m/s)
Visibility: 6 or more miles (10+ km)
Ceiling: 4000 feet AGL
Clouds: broken clouds at 4000 feet AGL
Weather: no significant weather observed at this time

METAR text: ZBHH 210000Z 30003MPS 260V340 9999 FEW040 M04/M11 Q1024 NOSIG
Conditions at: ZBHH (HUHHOT , CN) observed 0000 UTC 21 March 2019
Temperature: -4.0°C (25°F)
Dewpoint: -11.0°C (12°F) [RH = 58%]
Pressure (altimeter): 30.24 inches Hg (1024.0 mb)
Winds: from the WNW (300 degrees) at 7 MPH (6 knots; 3.1 m/s)
Visibility: 6 or more miles (10+ km)
Ceiling: at least 12,000 feet AGL
Clouds: few clouds at 4000 feet AGL
Weather: no significant weather observed at this time

Forecast for: ZBHH (HUHHOT , CN)
Text: TAF ZBHH 220900Z 2212/2312 36004G09MPS CAVOK TX05/2307Z TNM08/23Z
Forecast period: 1200 UTC 22 March 2019 to 1200 UTC 23 March 2019
Forecast type: FROM: standard forecast or significant change
Winds: from the N (360 degrees) at 9 MPH (8 knots; 4.1 m/s)
gusting to 20 MPH (17 knots; 8.7 m/s)
Visibility: 6 or more miles 10+ km)
Ceiling: unknown
Clouds: missing
Weather: no significant weather forecast for this period